Time;durP1;ratioP1;P1;durP2;ratioP2;P2;SDS_P1;SDS_P2;PMS_P1;PMS_P2;Temp;Humidity;BMP_temperature;BMP_pressure;BME280_temperature;BME280_humidity;BME280_pressure;Samples;Min_cycle;Max_cycle;Signal;HPM_P1;HPM_P2
2023/01/14 00:00:37;;;;;;;;;;;;;;;3.98;94.35;96598.59;109174;1272;22534;-81
2023/01/14 00:03:26;;;;;;;;;;;;;;;3.96;94.10;96599.92;109280;1267;22496;-81
2023/01/14 00:05:56;;;;;;;;;;;;;;;3.92;94.05;96612.59;109157;1272;22527;-81
2023/01/14 00:08:28;;;;;;;;;;;;;;;3.92;94.01;96604.45;109173;1272;22500;-81
2023/01/14 00:11:01;;;;;;;;;;;;;;;3.95;94.11;96608.30;109227;1272;24212;-81
2023/01/14 00:13:32;;;;;;;;;;;;;;;3.94;94.11;96619.09;109200;1272;22503;-81
2023/01/14 00:16:04;;;;;;;;;;;;;;;3.91;93.89;96621.59;109186;1272;23331;-81
2023/01/14 00:18:35;;;;;;;;;;;;;;;3.91;93.65;96618.18;109144;1266;25870;-81
2023/01/14 00:21:05;;;;;;;;;;;;;;;3.89;93.50;96618.16;109218;1272;24966;-81
2023/01/14 00:23:36;;;;;;;;;;;;;;;3.88;93.29;96621.35;109128;1274;25531;-81
2023/01/14 00:26:07;;;;;;;;;;;;;;;3.91;93.19;96622.02;109191;1267;23726;-82
2023/01/14 00:28:39;;;;;;;;;;;;;;;3.92;93.25;96628.84;109278;1272;23184;-81
2023/01/14 00:31:09;;;;;;;;;;;;;;;3.93;93.11;96627.02;109248;1272;22499;-81
2023/01/14 00:33:39;;;;;;;;;;;;;;;3.90;92.98;96632.13;109187;1272;22528;-81
2023/01/14 00:36:10;;;;;;;;;;;;;;;3.90;92.83;96627.52;109197;1266;22733;-81
2023/01/14 00:38:40;;;;;;;;;;;;;;;3.90;92.80;96632.27;109157;1272;22502;-81
2023/01/14 00:41:10;;;;;;;;;;;;;;;3.88;92.62;96633.50;109154;1267;22641;-81
2023/01/14 00:43:41;;;;;;;;;;;;;;;3.86;92.73;96636.77;109276;1272;22492;-81
2023/01/14 00:46:12;;;;;;;;;;;;;;;3.83;92.55;96629.55;109169;1265;22495;-80
2023/01/14 00:48:42;;;;;;;;;;;;;;;3.81;92.66;96630.23;109178;1267;37771;-81
2023/01/14 00:51:12;;;;;;;;;;;;;;;3.79;92.53;96626.94;109229;1272;22509;-80
2023/01/14 00:53:42;;;;;;;;;;;;;;;3.77;92.46;96631.30;109196;1272;23947;-81
2023/01/14 00:56:11;;;;;;;;;;;;;;;3.74;92.48;96634.09;109230;1267;22552;-81
2023/01/14 00:58:40;;;;;;;;;;;;;;;3.72;92.38;96632.23;109172;1272;22551;-80
2023/01/14 01:01:10;;;;;;;;;;;;;;;3.69;92.42;96636.84;109199;1272;25414;-81
2023/01/14 01:03:45;;;;;;;;;;;;;;;3.68;92.42;96634.46;109165;1267;22488;-81
2023/01/14 01:06:15;;;;;;;;;;;;;;;3.67;92.42;96634.39;109179;1267;22993;-81
2023/01/14 01:08:45;;;;;;;;;;;;;;;3.66;92.39;96637.11;109158;1267;23740;-80
2023/01/14 01:11:14;;;;;;;;;;;;;;;3.64;92.36;96634.11;109223;1272;22508;-81
2023/01/14 01:13:44;;;;;;;;;;;;;;;3.64;92.32;96645.11;109219;1272;22539;-81
2023/01/14 01:16:15;;;;;;;;;;;;;;;3.64;92.32;96643.23;109181;1270;23754;-81
2023/01/14 01:18:44;;;;;;;;;;;;;;;3.65;92.35;96648.69;109181;1272;22528;-81
2023/01/14 01:21:16;;;;;;;;;;;;;;;3.65;92.22;96639.83;109220;1270;22975;-80
2023/01/14 01:23:47;;;;;;;;;;;;;;;3.64;92.22;96650.77;109166;1272;22506;-80
2023/01/14 01:26:17;;;;;;;;;;;;;;;3.66;92.17;96654.05;109164;1272;22535;-81
2023/01/14 01:28:49;;;;;;;;;;;;;;;3.65;91.91;96656.27;109139;1272;22524;-81
2023/01/14 01:31:19;;;;;;;;;;;;;;;3.64;91.92;96655.38;109186;1272;22583;-80
2023/01/14 01:33:49;;;;;;;;;;;;;;;3.63;91.90;96657.58;109155;1272;22500;-80
2023/01/14 01:36:18;;;;;;;;;;;;;;;3.62;91.79;96662.48;109166;1272;22501;-81
2023/01/14 01:38:48;;;;;;;;;;;;;;;3.59;91.90;96660.33;109169;1272;22525;-81
2023/01/14 01:41:18;;;;;;;;;;;;;;;3.56;91.81;96661.50;109228;1267;22643;-81
2023/01/14 01:43:59;;;;;;;;;;;;;;;3.54;91.79;96656.22;109246;1272;22563;-81
2023/01/14 01:46:29;;;;;;;;;;;;;;;3.53;91.79;96665.41;109159;1271;22514;-81
2023/01/14 01:49:01;;;;;;;;;;;;;;;3.51;91.80;96663.90;109162;1272;25644;-81
2023/01/14 01:51:33;;;;;;;;;;;;;;;3.47;92.05;96657.48;109132;1272;22525;-80
2023/01/14 01:54:03;;;;;;;;;;;;;;;3.45;92.10;96651.04;109221;1269;22528;-81
2023/01/14 01:56:34;;;;;;;;;;;;;;;3.44;92.17;96663.19;109152;1272;22513;-80
2023/01/14 01:59:06;;;;;;;;;;;;;;;3.46;92.18;96655.66;109139;1267;22539;-80
2023/01/14 02:01:36;;;;;;;;;;;;;;;3.47;92.05;96654.48;109189;1270;26436;-80
2023/01/14 02:04:06;;;;;;;;;;;;;;;3.48;92.04;96668.07;109106;1274;22495;-81
2023/01/14 02:06:35;;;;;;;;;;;;;;;3.48;92.09;96657.75;109127;1273;23719;-81
2023/01/14 02:09:05;;;;;;;;;;;;;;;3.46;91.99;96662.47;109141;1266;23379;-81
2023/01/14 02:11:43;;;;;;;;;;;;;;;3.45;91.97;96669.23;109248;1272;22504;-81
2023/01/14 02:14:17;;;;;;;;;;;;;;;3.45;92.01;96660.67;109223;1272;22802;-81
2023/01/14 02:16:52;;;;;;;;;;;;;;;3.43;91.87;96663.63;109182;1272;22513;-80
2023/01/14 02:19:35;;;;;;;;;;;;;;;3.42;91.85;96661.35;109134;1272;33270;-81
2023/01/14 02:22:13;;;;;;;;;;;;;;;3.39;91.88;96663.63;109183;1269;22528;-80
2023/01/14 02:24:54;;;;;;;;;;;;;;;3.35;91.88;96665.66;109193;1265;22510;-81
2023/01/14 02:27:36;;;;;;;;;;;;;;;3.32;91.84;96667.48;109176;1272;22624;-81
2023/01/14 02:30:23;;;;;;;;;;;;;;;3.28;91.83;96680.83;109163;1272;24270;-81
2023/01/14 02:32:55;;;;;;;;;;;;;;;3.25;91.92;96682.23;109150;1267;22521;-81
2023/01/14 02:35:33;;;;;;;;;;;;;;;3.22;91.97;96684.88;109189;1272;24218;-81
2023/01/14 02:38:10;;;;;;;;;;;;;;;3.20;92.08;96683.10;109152;1272;52431;-81
2023/01/14 02:40:43;;;;;;;;;;;;;;;3.17;92.02;96680.70;109151;1272;25347;-80
2023/01/14 02:46:07;;;;;;;;;;;;;;;3.12;92.38;96676.91;109174;1268;22495;-81
2023/01/14 02:48:37;;;;;;;;;;;;;;;3.10;92.72;96677.90;109137;1272;22838;-81
2023/01/14 02:51:07;;;;;;;;;;;;;;;3.06;92.63;96672.44;109140;1272;25281;-81
2023/01/14 02:53:37;;;;;;;;;;;;;;;3.04;92.77;96668.45;109189;1266;22560;-80
2023/01/14 02:56:07;;;;;;;;;;;;;;;3.00;92.74;96674.77;109152;1267;26274;-81
2023/01/14 02:58:54;;;;;;;;;;;;;;;2.97;92.81;96680.38;109194;1266;22694;-80
2023/01/14 03:01:32;;;;;;;;;;;;;;;2.95;92.78;96684.23;109131;1272;22940;-82
2023/01/14 03:04:10;;;;;;;;;;;;;;;2.92;92.70;96684.31;109248;1272;22507;-82
2023/01/14 03:06:47;;;;;;;;;;;;;;;2.91;92.98;96685.62;109157;1272;22961;-82
2023/01/14 03:09:20;;;;;;;;;;;;;;;2.91;92.98;96683.89;109170;1267;22525;-82
2023/01/14 03:11:54;;;;;;;;;;;;;;;2.89;92.98;96682.73;109204;1272;22491;-82
2023/01/14 03:14:27;;;;;;;;;;;;;;;2.87;92.94;96687.40;109206;1266;22512;-83
2023/01/14 03:17:01;;;;;;;;;;;;;;;2.84;93.14;96685.30;109232;1266;22610;-82
2023/01/14 03:19:34;;;;;;;;;;;;;;;2.86;93.31;96688.90;109178;1271;22537;-82
2023/01/14 03:22:05;;;;;;;;;;;;;;;2.82;93.36;96693.27;109289;1266;22519;-82
2023/01/14 03:24:36;;;;;;;;;;;;;;;2.78;93.36;96692.69;109187;1262;22541;-82
2023/01/14 03:27:08;;;;;;;;;;;;;;;2.75;93.40;96697.65;109217;1272;22502;-82
2023/01/14 03:29:38;;;;;;;;;;;;;;;2.71;93.40;96700.70;109149;1266;28629;-82
2023/01/14 03:32:10;;;;;;;;;;;;;;;2.68;93.58;96701.84;109268;1272;22724;-82
2023/01/14 03:34:44;;;;;;;;;;;;;;;2.65;93.71;96713.27;109196;1272;23042;-82
2023/01/14 03:37:15;;;;;;;;;;;;;;;2.62;93.74;96715.61;109182;1272;23864;-82
2023/01/14 03:39:46;;;;;;;;;;;;;;;2.61;93.79;96721.60;109165;1266;22508;-82
2023/01/14 03:42:20;;;;;;;;;;;;;;;2.58;93.95;96722.41;109138;1272;24219;-82
2023/01/14 03:44:55;;;;;;;;;;;;;;;2.55;93.86;96720.58;109204;1272;22540;-82
2023/01/14 03:47:25;;;;;;;;;;;;;;;2.53;93.88;96724.64;109197;1271;22495;-82
2023/01/14 03:49:55;;;;;;;;;;;;;;;2.53;93.89;96727.98;109225;1272;28912;-82
2023/01/14 03:52:31;;;;;;;;;;;;;;;2.51;93.89;96734.95;109201;1272;22508;-82
2023/01/14 03:55:03;;;;;;;;;;;;;;;2.49;94.01;96731.99;109185;1266;22518;-82
2023/01/14 03:57:37;;;;;;;;;;;;;;;2.51;94.05;96729.02;109163;1272;23141;-82
2023/01/14 04:00:09;;;;;;;;;;;;;;;2.54;94.18;96723.32;109162;1272;22967;-82
2023/01/14 04:02:46;;;;;;;;;;;;;;;2.57;94.10;96728.74;109197;1272;22614;-82
2023/01/14 04:05:17;;;;;;;;;;;;;;;2.59;94.07;96738.30;109182;1272;22520;-82
2023/01/14 04:07:47;;;;;;;;;;;;;;;2.58;93.90;96747.50;109164;1269;22495;-82
2023/01/14 04:10:17;;;;;;;;;;;;;;;2.54;93.62;96746.50;109210;1272;24359;-82
2023/01/14 04:15:33;;;;;;;;;;;;;;;2.51;93.41;96750.70;109176;1264;22503;-82
2023/01/14 04:18:03;;;;;;;;;;;;;;;2.49;93.39;96751.71;109161;1266;25469;-82
2023/01/14 04:20:32;;;;;;;;;;;;;;;2.49;93.65;96752.12;109182;1272;25255;-82
2023/01/14 04:23:01;;;;;;;;;;;;;;;2.49;93.76;96758.40;109189;1272;22551;-82
2023/01/14 04:25:31;;;;;;;;;;;;;;;2.45;93.64;96765.06;109189;1272;23656;-82
2023/01/14 04:28:00;;;;;;;;;;;;;;;2.42;93.75;96768.43;109161;1272;24836;-82
2023/01/14 04:30:32;;;;;;;;;;;;;;;2.40;93.87;96770.13;109143;1266;22504;-82
2023/01/14 04:33:01;;;;;;;;;;;;;;;2.40;93.99;96764.42;109148;1272;22525;-82
2023/01/14 04:35:31;;;;;;;;;;;;;;;2.42;94.16;96763.05;109158;1272;22505;-82
2023/01/14 04:38:00;;;;;;;;;;;;;;;2.47;94.35;96771.32;109129;1265;23965;-82
2023/01/14 04:40:30;;;;;;;;;;;;;;;2.50;94.36;96777.02;109141;1266;22764;-83
2023/01/14 04:42:59;;;;;;;;;;;;;;;2.56;94.48;96771.84;109223;1272;23916;-82
2023/01/14 04:45:28;;;;;;;;;;;;;;;2.63;94.38;96777.29;109153;1272;22508;-82
2023/01/14 04:47:59;;;;;;;;;;;;;;;2.67;94.39;96776.15;109195;1272;22494;-82
2023/01/14 04:50:33;;;;;;;;;;;;;;;2.71;94.45;96774.20;109181;1266;24209;-81
2023/01/14 04:53:06;;;;;;;;;;;;;;;2.77;94.28;96776.84;109211;1267;22494;-82
2023/01/14 04:55:38;;;;;;;;;;;;;;;2.80;94.17;96773.92;109210;1272;23720;-81
2023/01/14 04:58:09;;;;;;;;;;;;;;;2.82;94.08;96779.35;109260;1271;22517;-81
2023/01/14 05:00:38;;;;;;;;;;;;;;;2.83;93.99;96779.54;109201;1272;22491;-81
2023/01/14 05:03:12;;;;;;;;;;;;;;;2.83;93.90;96777.13;109181;1272;22567;-82
2023/01/14 05:05:41;;;;;;;;;;;;;;;2.84;93.81;96776.31;109183;1272;26552;-82
2023/01/14 05:08:11;;;;;;;;;;;;;;;2.85;93.77;96776.44;109135;1272;22503;-82
2023/01/14 05:10:41;;;;;;;;;;;;;;;2.86;93.82;96782.55;109161;1272;22519;-82
2023/01/14 05:13:11;;;;;;;;;;;;;;;2.88;93.70;96784.69;109174;1272;22514;-81
2023/01/14 05:15:42;;;;;;;;;;;;;;;2.90;93.68;96786.87;109153;1272;22501;-81
2023/01/14 05:18:12;;;;;;;;;;;;;;;2.91;93.59;96787.41;109149;1272;22520;-82
2023/01/14 05:20:44;;;;;;;;;;;;;;;2.95;93.63;96788.61;109180;1272;22509;-81
2023/01/14 05:23:14;;;;;;;;;;;;;;;2.98;93.50;96788.42;109180;1272;22543;-82
2023/01/14 05:25:44;;;;;;;;;;;;;;;2.99;93.35;96794.52;109171;1272;22544;-82
2023/01/14 05:28:14;;;;;;;;;;;;;;;3.00;93.25;96801.15;109151;1272;23399;-82
2023/01/14 05:30:44;;;;;;;;;;;;;;;3.00;93.25;96801.67;109165;1272;22504;-81
2023/01/14 05:33:14;;;;;;;;;;;;;;;3.00;93.11;96804.23;109203;1271;22521;-81
2023/01/14 05:35:43;;;;;;;;;;;;;;;2.98;93.04;96804.36;109109;1272;22546;-82
2023/01/14 05:38:12;;;;;;;;;;;;;;;2.97;93.06;96799.10;109145;1265;29164;-82
2023/01/14 05:40:43;;;;;;;;;;;;;;;2.96;93.06;96804.88;109151;1267;22526;-81
2023/01/14 05:46:03;;;;;;;;;;;;;;;2.96;93.13;96814.84;109159;1266;22506;-82
2023/01/14 05:48:32;;;;;;;;;;;;;;;2.94;93.07;96818.33;109114;1266;23224;-82
2023/01/14 05:51:04;;;;;;;;;;;;;;;2.94;93.08;96817.73;109183;1269;22502;-81
2023/01/14 05:53:34;;;;;;;;;;;;;;;2.93;93.05;96822.12;109166;1266;22552;-81
2023/01/14 05:56:04;;;;;;;;;;;;;;;2.93;93.05;96821.66;109204;1272;23681;-81
2023/01/14 05:58:33;;;;;;;;;;;;;;;2.94;93.00;96823.30;109163;1272;23766;-81
2023/01/14 06:06:43;;;;;;;;;;;;;;;2.95;92.95;96841.98;109212;1272;22546;-82
2023/01/14 06:09:16;;;;;;;;;;;;;;;2.94;93.00;96845.42;109091;1272;25307;-82
2023/01/14 06:11:48;;;;;;;;;;;;;;;2.93;92.93;96850.83;109168;1270;22530;-82
2023/01/14 06:14:18;;;;;;;;;;;;;;;2.97;93.10;96847.59;109185;1272;22509;-81
2023/01/14 06:16:51;;;;;;;;;;;;;;;2.98;93.06;96851.55;109115;1272;22545;-82
2023/01/14 06:19:21;;;;;;;;;;;;;;;2.98;93.07;96852.27;109156;1272;22524;-82
2023/01/14 06:21:50;;;;;;;;;;;;;;;2.98;93.18;96854.20;109182;1269;22494;-82
2023/01/14 06:24:20;;;;;;;;;;;;;;;2.99;93.24;96859.06;109261;1272;24007;-81
2023/01/14 06:26:49;;;;;;;;;;;;;;;3.01;93.32;96854.36;109132;1272;25155;-82
2023/01/14 06:29:19;;;;;;;;;;;;;;;3.03;93.33;96860.30;109137;1266;41905;-82
2023/01/14 06:31:51;;;;;;;;;;;;;;;3.05;93.27;96856.10;109180;1272;23832;-82
2023/01/14 06:34:23;;;;;;;;;;;;;;;3.06;93.19;96852.30;109188;1272;22498;-81
2023/01/14 06:36:52;;;;;;;;;;;;;;;3.09;93.33;96848.52;109159;1272;22506;-82
2023/01/14 06:39:22;;;;;;;;;;;;;;;3.13;93.27;96860.88;109109;1266;22518;-81
2023/01/14 06:41:51;;;;;;;;;;;;;;;3.16;93.20;96862.92;109162;1266;22572;-82
2023/01/14 06:44:23;;;;;;;;;;;;;;;3.20;93.37;96867.69;109180;1253;22526;-82
2023/01/14 06:46:54;;;;;;;;;;;;;;;3.21;93.20;96871.70;109146;1272;22510;-82
2023/01/14 06:49:23;;;;;;;;;;;;;;;3.23;93.27;96872.59;109121;1272;22540;-82
2023/01/14 06:51:53;;;;;;;;;;;;;;;3.25;93.24;96875.48;109127;1265;22604;-82
2023/01/14 06:54:23;;;;;;;;;;;;;;;3.26;93.07;96882.52;109192;1272;22520;-81
2023/01/14 06:56:52;;;;;;;;;;;;;;;3.27;93.22;96882.87;109151;1266;22538;-82
2023/01/14 06:59:22;;;;;;;;;;;;;;;3.27;93.28;96885.65;109154;1272;22507;-81
2023/01/14 07:01:51;;;;;;;;;;;;;;;3.29;93.20;96880.38;109191;1272;22558;-82
2023/01/14 07:04:21;;;;;;;;;;;;;;;3.29;93.34;96887.83;109198;1269;22497;-82
2023/01/14 07:06:53;;;;;;;;;;;;;;;3.31;93.29;96889.39;109184;1272;22954;-82
2023/01/14 07:09:22;;;;;;;;;;;;;;;3.31;93.35;96892.69;109147;1266;22497;-82
2023/01/14 07:11:52;;;;;;;;;;;;;;;3.32;93.39;96899.36;109194;1272;22529;-82
2023/01/14 07:14:23;;;;;;;;;;;;;;;3.32;93.52;96897.02;109182;1272;24157;-82
2023/01/14 07:16:53;;;;;;;;;;;;;;;3.34;93.39;96900.98;109161;1266;22491;-82
2023/01/14 07:19:22;;;;;;;;;;;;;;;3.36;93.38;96902.44;109127;1269;48258;-82
2023/01/14 07:21:52;;;;;;;;;;;;;;;3.37;93.42;96909.19;109149;1266;22573;-82
2023/01/14 07:24:22;;;;;;;;;;;;;;;3.40;93.33;96915.36;109137;1272;22495;-82
2023/01/14 07:26:51;;;;;;;;;;;;;;;3.45;93.31;96913.15;109172;1272;24209;-82
2023/01/14 07:29:21;;;;;;;;;;;;;;;3.50;93.23;96914.32;109161;1266;22841;-82
2023/01/14 07:31:52;;;;;;;;;;;;;;;3.56;93.24;96912.91;109170;1272;22510;-83
2023/01/14 07:34:21;;;;;;;;;;;;;;;3.77;93.15;96910.67;109276;1260;22731;-82
2023/01/14 07:36:51;;;;;;;;;;;;;;;3.91;92.91;96910.72;109199;1272;22577;-82
2023/01/14 07:39:20;;;;;;;;;;;;;;;4.02;92.62;96912.39;109141;1272;24953;-83
2023/01/14 07:41:50;;;;;;;;;;;;;;;4.00;92.04;96905.80;109255;1266;22627;-83
2023/01/14 07:44:23;;;;;;;;;;;;;;;3.96;91.82;96911.80;109168;1272;22494;-83
2023/01/14 07:46:54;;;;;;;;;;;;;;;3.92;91.54;96917.14;109234;1266;22502;-82
2023/01/14 07:49:23;;;;;;;;;;;;;;;3.87;91.34;96921.02;109129;1272;22503;-82
2023/01/14 07:51:53;;;;;;;;;;;;;;;3.85;91.32;96924.86;109126;1266;22490;-83
2023/01/14 07:54:23;;;;;;;;;;;;;;;3.82;91.14;96924.02;109169;1272;22510;-83
2023/01/14 07:56:52;;;;;;;;;;;;;;;3.82;91.17;96926.95;109147;1266;23797;-82
2023/01/14 07:59:24;;;;;;;;;;;;;;;3.80;91.05;96927.96;109120;1266;24028;-82
2023/01/14 08:01:54;;;;;;;;;;;;;;;3.79;91.09;96926.39;109252;1265;22583;-82
2023/01/14 08:04:23;;;;;;;;;;;;;;;3.87;91.16;96927.69;109217;1272;26592;-83
2023/01/14 08:06:53;;;;;;;;;;;;;;;4.19;91.33;96927.48;109200;1272;24011;-82
2023/01/14 08:09:24;;;;;;;;;;;;;;;4.34;91.07;96928.04;109096;1272;39641;-83
2023/01/14 08:11:54;;;;;;;;;;;;;;;4.70;91.13;96928.27;109224;1272;22515;-83
2023/01/14 08:14:23;;;;;;;;;;;;;;;5.33;90.82;96926.48;109184;1272;25379;-83
2023/01/14 08:16:53;;;;;;;;;;;;;;;5.96;90.11;96928.81;109160;1272;24215;-83
2023/01/14 08:19:22;;;;;;;;;;;;;;;6.46;88.94;96932.69;109156;1272;22544;-83
2023/01/14 08:21:52;;;;;;;;;;;;;;;6.88;87.48;96934.85;109105;1273;24275;-83
2023/01/14 08:24:21;;;;;;;;;;;;;;;7.14;86.91;96935.65;109187;1272;23012;-83
2023/01/14 08:26:50;;;;;;;;;;;;;;;7.27;85.61;96936.52;109166;1272;23887;-83
2023/01/14 08:29:20;;;;;;;;;;;;;;;7.40;85.32;96934.98;109047;1272;22677;-84
2023/01/14 08:31:54;;;;;;;;;;;;;;;7.53;84.41;96937.73;109118;1273;22527;-84
2023/01/14 08:34:24;;;;;;;;;;;;;;;7.61;83.91;96941.82;109135;1266;23934;-84
2023/01/14 08:36:54;;;;;;;;;;;;;;;7.71;83.63;96941.05;109131;1272;22495;-84
2023/01/14 08:39:23;;;;;;;;;;;;;;;7.82;82.25;96939.61;109084;1270;22890;-84
2023/01/14 08:41:53;;;;;;;;;;;;;;;7.84;80.88;96931.29;109140;1272;22625;-83
2023/01/14 08:44:23;;;;;;;;;;;;;;;7.81;80.45;96940.50;109133;1272;22715;-84
2023/01/14 08:46:53;;;;;;;;;;;;;;;7.75;79.73;96949.89;109126;1272;25022;-83
2023/01/14 08:49:22;;;;;;;;;;;;;;;7.62;79.86;96950.54;109133;1272;22533;-83
2023/01/14 08:51:51;;;;;;;;;;;;;;;7.60;79.84;96947.88;109161;1266;22545;-83
2023/01/14 08:54:21;;;;;;;;;;;;;;;7.62;79.37;96953.77;109168;1272;22499;-83
2023/01/14 08:56:51;;;;;;;;;;;;;;;7.64;79.44;96954.71;109130;1272;22510;-83
2023/01/14 08:59:20;;;;;;;;;;;;;;;7.46;78.57;96958.71;109083;1273;23828;-83
2023/01/14 09:01:50;;;;;;;;;;;;;;;7.26;78.81;96965.11;109129;1272;22550;-83
2023/01/14 09:04:20;;;;;;;;;;;;;;;7.12;78.98;96966.48;109207;1272;25109;-83
2023/01/14 09:18:03;;;;;;;;;;;;;;;6.00;78.38;96980.75;109181;1272;30740;-82
2023/01/14 09:20:36;;;;;;;;;;;;;;;5.86;78.49;96970.98;109217;1272;22583;-82
2023/01/14 09:23:08;;;;;;;;;;;;;;;5.74;78.64;96973.88;109196;1266;22580;-82
2023/01/14 09:25:37;;;;;;;;;;;;;;;5.70;79.26;96975.02;109161;1269;22501;-82
2023/01/14 09:28:07;;;;;;;;;;;;;;;5.71;79.69;96970.72;109140;1272;40581;-82
2023/01/14 09:30:38;;;;;;;;;;;;;;;5.70;79.63;96972.23;109186;1272;22550;-82
2023/01/14 09:33:07;;;;;;;;;;;;;;;5.72;79.39;96967.78;109162;1266;22543;-82
2023/01/14 09:35:37;;;;;;;;;;;;;;;5.83;80.25;96969.40;109167;1272;24222;-82
2023/01/14 09:38:06;;;;;;;;;;;;;;;6.02;80.71;96964.88;109138;1272;22494;-82
2023/01/14 09:40:38;;;;;;;;;;;;;;;6.16;80.86;96964.94;109156;1271;23876;-82
2023/01/14 09:43:14;;;;;;;;;;;;;;;6.32;81.15;96962.52;109204;1272;22504;-82
2023/01/14 09:45:44;;;;;;;;;;;;;;;6.59;81.01;96962.73;109206;1266;22513;-82
2023/01/14 09:48:15;;;;;;;;;;;;;;;6.74;80.52;96964.23;109162;1272;25878;-82
2023/01/14 09:50:50;;;;;;;;;;;;;;;6.77;79.97;96962.98;109179;1273;22501;-82
2023/01/14 09:53:27;;;;;;;;;;;;;;;6.73;79.45;96962.70;109233;1271;22666;-82
2023/01/14 09:55:59;;;;;;;;;;;;;;;6.68;79.31;96963.17;109197;1272;22565;-82
2023/01/14 09:58:30;;;;;;;;;;;;;;;6.66;78.90;96960.67;109166;1273;22610;-81
2023/01/14 10:01:08;;;;;;;;;;;;;;;6.72;78.69;96961.20;109092;1272;22530;-82
2023/01/14 10:03:42;;;;;;;;;;;;;;;6.73;78.54;96964.33;109166;1272;22537;-82
2023/01/14 10:06:13;;;;;;;;;;;;;;;6.67;77.90;96959.63;109158;1269;22492;-82
2023/01/14 10:08:44;;;;;;;;;;;;;;;6.47;77.31;96957.69;109072;1269;53667;-82
2023/01/14 10:11:14;;;;;;;;;;;;;;;6.41;77.37;96953.60;109248;1271;22492;-81
2023/01/14 10:13:46;;;;;;;;;;;;;;;6.43;77.31;96957.56;109224;1272;22950;-82
2023/01/14 10:16:18;;;;;;;;;;;;;;;6.33;77.20;96958.96;109171;1266;22573;-82
2023/01/14 10:18:53;;;;;;;;;;;;;;;6.28;77.43;96960.67;109168;1272;24244;-82
2023/01/14 10:21:27;;;;;;;;;;;;;;;6.24;77.42;96956.42;109150;1266;22610;-81
2023/01/14 10:23:56;;;;;;;;;;;;;;;6.22;77.57;96949.45;109129;1273;22583;-82
2023/01/14 10:26:31;;;;;;;;;;;;;;;6.20;77.60;96946.67;109120;1272;140947;-82
2023/01/14 10:29:03;;;;;;;;;;;;;;;6.22;78.09;96946.08;109103;1273;25253;-82
2023/01/14 10:31:35;;;;;;;;;;;;;;;6.29;78.45;96945.11;109102;1266;24292;-82
2023/01/14 10:34:06;;;;;;;;;;;;;;;6.32;77.89;96947.55;109172;1273;22509;-82
2023/01/14 10:36:36;;;;;;;;;;;;;;;6.30;77.94;96946.85;109067;1271;22516;-82
2023/01/14 10:39:07;;;;;;;;;;;;;;;6.28;77.88;96943.41;109151;1272;23155;-82
2023/01/14 10:41:49;;;;;;;;;;;;;;;6.23;77.72;96941.83;109148;1266;23959;-82
2023/01/14 10:44:23;;;;;;;;;;;;;;;6.28;78.30;96940.66;109152;1272;22487;-82
2023/01/14 10:46:55;;;;;;;;;;;;;;;6.31;78.47;96938.23;109163;1262;22577;-82
2023/01/14 10:49:29;;;;;;;;;;;;;;;6.33;78.48;96938.78;109253;1266;22785;-82
2023/01/14 10:51:58;;;;;;;;;;;;;;;6.37;78.28;96945.17;109188;1265;23210;-82
2023/01/14 10:54:28;;;;;;;;;;;;;;;6.43;78.09;96941.98;109206;1269;24526;-82
2023/01/14 10:57:00;;;;;;;;;;;;;;;6.45;78.06;96946.75;109231;1261;22582;-82
2023/01/14 10:59:32;;;;;;;;;;;;;;;6.46;77.93;96936.11;109109;1272;22498;-82
2023/01/14 11:02:02;;;;;;;;;;;;;;;6.49;77.97;96932.70;109176;1262;22935;-82
2023/01/14 11:04:32;;;;;;;;;;;;;;;6.52;78.33;96931.80;109150;1272;22589;-82
2023/01/14 11:07:09;;;;;;;;;;;;;;;6.57;78.12;96931.10;109088;1273;22706;-82
2023/01/14 11:09:39;;;;;;;;;;;;;;;6.56;77.98;96928.08;109207;1257;22521;-82
2023/01/14 11:12:25;;;;;;;;;;;;;;;6.49;77.36;96922.27;109159;1272;22514;-82
2023/01/14 11:14:54;;;;;;;;;;;;;;;6.46;77.79;96923.95;109139;1272;22506;-83
2023/01/14 11:17:25;;;;;;;;;;;;;;;6.64;77.66;96912.64;109158;1272;22494;-83
2023/01/14 11:20:14;;;;;;;;;;;;;;;6.84;78.04;96913.40;109141;1266;31597;-82
2023/01/14 11:22:55;;;;;;;;;;;;;;;7.09;77.25;96901.23;109140;1266;26889;-83
2023/01/14 11:25:26;;;;;;;;;;;;;;;7.14;76.35;96901.80;109171;1272;22506;-83
2023/01/14 11:27:56;;;;;;;;;;;;;;;7.26;76.41;96897.39;109173;1266;24325;-83
2023/01/14 11:30:26;;;;;;;;;;;;;;;7.27;75.42;96892.86;109200;1272;22526;-82
2023/01/14 11:32:59;;;;;;;;;;;;;;;7.20;76.15;96890.22;109197;1266;23863;-82
2023/01/14 11:35:32;;;;;;;;;;;;;;;6.99;74.90;96886.48;109173;1272;22507;-82
2023/01/14 11:38:06;;;;;;;;;;;;;;;6.77;75.06;96895.25;109181;1269;35894;-82
2023/01/14 11:43:25;;;;;;;;;;;;;;;6.61;76.03;96891.79;109171;1266;23413;-81
2023/01/14 11:46:06;;;;;;;;;;;;;;;6.55;75.95;96897.47;109158;1272;22692;-81
2023/01/14 11:48:38;;;;;;;;;;;;;;;6.49;75.59;96897.45;109197;1272;23811;-81
2023/01/14 11:51:17;;;;;;;;;;;;;;;6.46;75.85;96893.92;109216;1271;25288;-82
2023/01/14 11:53:49;;;;;;;;;;;;;;;6.54;76.18;96891.87;109192;1267;22512;-81
2023/01/14 11:56:21;;;;;;;;;;;;;;;6.58;75.90;96889.55;109208;1271;26125;-82
2023/01/14 11:58:51;;;;;;;;;;;;;;;6.61;75.39;96891.80;109162;1266;22530;-82
2023/01/14 12:01:26;;;;;;;;;;;;;;;6.73;75.80;96896.77;109208;1271;23733;-81
2023/01/14 12:04:01;;;;;;;;;;;;;;;6.81;75.78;96892.83;109263;1265;22502;-82
2023/01/14 12:06:31;;;;;;;;;;;;;;;6.84;75.93;96893.21;109165;1272;22492;-82
2023/01/14 12:09:03;;;;;;;;;;;;;;;6.85;75.79;96889.59;109117;1272;22517;-82
2023/01/14 12:11:37;;;;;;;;;;;;;;;6.86;75.77;96882.11;109130;1272;22645;-82
2023/01/14 12:17:02;;;;;;;;;;;;;;;6.88;75.80;96878.80;109146;1269;23704;-82
2023/01/14 12:19:34;;;;;;;;;;;;;;;6.88;75.51;96879.96;109127;1266;34372;-82
2023/01/14 12:22:12;;;;;;;;;;;;;;;6.87;75.35;96882.17;109199;1271;22551;-83
2023/01/14 12:24:48;;;;;;;;;;;;;;;6.84;75.34;96881.36;109111;1265;22506;-82
2023/01/14 12:27:41;;;;;;;;;;;;;;;6.82;75.65;96883.92;109211;1272;23859;-82
2023/01/14 12:30:24;;;;;;;;;;;;;;;6.81;75.10;96876.70;109110;1268;22660;-82
2023/01/14 12:32:56;;;;;;;;;;;;;;;6.72;74.07;96877.05;109160;1272;22579;-82
2023/01/14 12:35:28;;;;;;;;;;;;;;;6.66;74.18;96864.27;109141;1267;23826;-82
2023/01/14 12:38:02;;;;;;;;;;;;;;;6.63;74.47;96866.13;109156;1272;22516;-82
2023/01/14 12:46:13;;;;;;;;;;;;;;;6.67;74.61;96859.41;109174;1272;22517;-82
2023/01/14 12:48:42;;;;;;;;;;;;;;;6.69;74.05;96860.38;109141;1269;22546;-82
2023/01/14 12:51:18;;;;;;;;;;;;;;;6.69;73.89;96862.55;109169;1262;22512;-82
2023/01/14 12:53:50;;;;;;;;;;;;;;;6.67;74.23;96858.10;109177;1265;22498;-82
2023/01/14 12:56:22;;;;;;;;;;;;;;;6.72;74.54;96848.59;109102;1272;23733;-81
2023/01/14 12:58:57;;;;;;;;;;;;;;;6.79;74.30;96843.73;109127;1272;22495;-81
2023/01/14 13:01:28;;;;;;;;;;;;;;;6.89;74.01;96846.41;109174;1269;22504;-81
2023/01/14 13:03:58;;;;;;;;;;;;;;;7.15;73.61;96852.94;109165;1272;25401;-82
2023/01/14 13:06:32;;;;;;;;;;;;;;;7.29;73.50;96855.27;109126;1272;22501;-82
2023/01/14 13:09:03;;;;;;;;;;;;;;;7.32;73.21;96858.83;109120;1266;22495;-83
2023/01/14 13:11:42;;;;;;;;;;;;;;;7.41;72.76;96850.05;109148;1272;22508;-83
2023/01/14 13:14:21;;;;;;;;;;;;;;;7.54;72.15;96847.14;109210;1272;22563;-83
2023/01/14 13:16:51;;;;;;;;;;;;;;;7.65;71.88;96845.06;109150;1272;24950;-83
2023/01/14 13:19:38;;;;;;;;;;;;;;;7.72;71.95;96848.44;109203;1269;22877;-83
2023/01/14 13:22:09;;;;;;;;;;;;;;;7.75;71.62;96848.35;109182;1272;22525;-82
2023/01/14 13:24:59;;;;;;;;;;;;;;;7.57;70.98;96848.65;109194;1272;25261;-83
2023/01/14 13:27:36;;;;;;;;;;;;;;;7.29;71.07;96849.11;109168;1272;24995;-82
2023/01/14 13:30:23;;;;;;;;;;;;;;;7.02;71.05;96855.67;109190;1272;25963;-82
2023/01/14 13:32:54;;;;;;;;;;;;;;;6.84;70.98;96857.38;109168;1272;24215;-82
2023/01/14 13:35:23;;;;;;;;;;;;;;;6.69;70.88;96852.48;109162;1272;22499;-82
2023/01/14 13:37:54;;;;;;;;;;;;;;;6.58;70.95;96850.40;109195;1262;22504;-82
2023/01/14 13:40:26;;;;;;;;;;;;;;;6.58;71.37;96856.73;109224;1269;22769;-82
2023/01/14 13:43:06;;;;;;;;;;;;;;;6.67;70.84;96856.46;109250;1266;22520;-82
2023/01/14 13:45:37;;;;;;;;;;;;;;;6.61;70.49;96848.27;109115;1272;22513;-82
2023/01/14 13:48:14;;;;;;;;;;;;;;;6.45;70.03;96850.95;109117;1272;22625;-82